createdAt,value
2018-06-10T00:00:33.575Z,100614.30
2018-06-10T00:05:36.676Z,100620.74
2018-06-10T00:10:39.682Z,100617.06
2018-06-10T00:15:42.763Z,100615.03
2018-06-10T00:20:45.826Z,100606.99
2018-06-10T00:25:48.861Z,100606.31
2018-06-10T00:30:51.877Z,100615.44
2018-06-10T00:35:54.917Z,100614.52
2018-06-10T00:40:57.973Z,100623.81
2018-06-10T00:46:01.045Z,100626.83
2018-06-10T00:51:04.107Z,100621.34
2018-06-10T00:56:24.280Z,100613.09
2018-06-10T01:01:27.295Z,100607.50
2018-06-10T01:06:30.345Z,100601.62
2018-06-10T01:11:33.350Z,100609.18
2018-06-10T01:16:36.409Z,100600.55
2018-06-10T01:21:39.392Z,100600.07
2018-06-10T01:26:48.090Z,100603.30
2018-06-10T01:31:51.096Z,100606.72
2018-06-10T01:36:54.106Z,100601.41
2018-06-10T01:41:57.168Z,100597.61
2018-06-10T01:47:00.212Z,100596.70
2018-06-10T01:52:03.261Z,100603.38
2018-06-10T01:57:06.269Z,100606.35
2018-06-10T02:02:09.306Z,100609.23
2018-06-10T02:07:13.322Z,100613.37
2018-06-10T02:12:16.346Z,100615.67
2018-06-10T02:17:19.414Z,100623.66
2018-06-10T02:22:22.445Z,100625.75
2018-06-10T02:27:25.422Z,100621.32
2018-06-10T02:32:28.417Z,100613.02
2018-06-10T02:37:31.447Z,100618.56
2018-06-10T02:42:34.518Z,100615.78
2018-06-10T02:47:37.521Z,100632.05
2018-06-10T02:52:40.520Z,100643.70
2018-06-10T02:57:43.637Z,100654.66
2018-06-10T03:02:46.649Z,100662.28
2018-06-10T03:07:49.950Z,100679.34
2018-06-10T03:12:53.251Z,100681.57
2018-06-10T03:17:56.577Z,100676.26
2018-06-10T03:22:59.937Z,100669.38
2018-06-10T03:28:03.211Z,100654.66
2018-06-10T03:33:06.216Z,100654.82
2018-06-10T03:38:09.217Z,100670.63
2018-06-10T03:43:13.248Z,100673.84
2018-06-10T03:48:16.321Z,100680.02
2018-06-10T03:53:20.020Z,100671.84
2018-06-10T03:58:24.186Z,100668.04
2018-06-10T04:03:27.254Z,100661.84
2018-06-10T04:08:30.614Z,100659.10
2018-06-10T04:13:33.641Z,100664.61
2018-06-10T04:18:36.697Z,100664.78
2018-06-10T04:23:39.724Z,100662.97
2018-06-10T04:28:42.793Z,100669.23
2018-06-10T04:33:45.892Z,100663.28
2018-06-10T04:38:48.852Z,100656.60
2018-06-10T04:43:51.839Z,100657.47
2018-06-10T04:48:54.821Z,100663.97
2018-06-10T04:53:57.880Z,100663.33
2018-06-10T04:59:00.863Z,100664.37
2018-06-10T05:04:03.905Z,100663.43
2018-06-10T05:09:07.012Z,100672.28
2018-06-10T05:14:09.989Z,100674.09
2018-06-10T05:19:13.053Z,100683.55
2018-06-10T05:24:16.149Z,100693.44
2018-06-10T05:29:19.137Z,100691.98
2018-06-10T05:34:22.201Z,100691.12
2018-06-10T05:39:25.185Z,100689.18
2018-06-10T05:44:28.269Z,100691.23
2018-06-10T05:49:31.293Z,100700.58
2018-06-10T05:54:34.362Z,100711.75
2018-06-10T05:59:37.317Z,100713.81
2018-06-10T06:04:41.662Z,100722.53
2018-06-10T06:09:44.662Z,100721.55
2018-06-10T06:14:47.764Z,100722.14
2018-06-10T06:19:50.793Z,100719.13
2018-06-10T06:24:53.825Z,100712.72
2018-06-10T06:29:58.198Z,100704.95
2018-06-10T06:35:01.240Z,100699.50
2018-06-10T06:40:04.352Z,100703.38
2018-06-10T06:45:07.438Z,100696.45
2018-06-10T06:50:10.531Z,100702.90
2018-06-10T06:55:13.836Z,100700.83
2018-06-10T07:00:16.912Z,100701.46
2018-06-10T07:05:19.955Z,100705.50
2018-06-10T07:10:23.019Z,100703.70
2018-06-10T07:15:26.058Z,100697.60
2018-06-10T07:20:29.157Z,100689.14
2018-06-10T07:25:32.213Z,100684.80
2018-06-10T07:30:35.195Z,100692.00
2018-06-10T07:35:38.198Z,100697.40
2018-06-10T07:40:41.253Z,100684.86
2018-06-10T07:45:44.453Z,100685.11
2018-06-10T07:50:47.513Z,100695.63
2018-06-10T07:55:50.541Z,100692.23
2018-06-10T08:00:53.542Z,100691.39
2018-06-10T08:05:56.653Z,100700.50
2018-06-10T08:10:59.758Z,100700.84
2018-06-10T08:16:02.836Z,100704.49
2018-06-10T08:21:05.901Z,100702.06
2018-06-10T08:26:08.946Z,100710.17
2018-06-10T08:31:12.055Z,100709.20
2018-06-10T08:36:15.261Z,100700.27
2018-06-10T08:41:18.378Z,100712.22
2018-06-10T08:46:21.559Z,100708.35
2018-06-10T08:51:24.657Z,100721.31
2018-06-10T08:56:27.714Z,100723.96
2018-06-10T09:01:30.958Z,100734.59
2018-06-10T09:06:34.051Z,100734.47
2018-06-10T09:11:37.586Z,100737.78
2018-06-10T09:16:40.701Z,100731.83
2018-06-10T09:21:43.762Z,100733.41
2018-06-10T09:26:46.830Z,100722.19
2018-06-10T09:31:50.288Z,100718.03
2018-06-10T09:36:53.293Z,100730.52
2018-06-10T09:41:56.316Z,100726.13
2018-06-10T09:46:59.345Z,100717.11
2018-06-10T09:52:03.351Z,100716.37
2018-06-10T09:57:06.511Z,100721.03
2018-06-10T10:02:09.656Z,100722.00
2018-06-10T10:07:12.721Z,100712.80
2018-06-10T10:12:15.757Z,100714.03
2018-06-10T10:17:19.815Z,100718.47
2018-06-10T10:22:22.951Z,100724.95
2018-06-10T10:27:27.490Z,100736.61
2018-06-10T10:32:30.534Z,100741.42
2018-06-10T10:37:34.336Z,100746.09
2018-06-10T10:42:38.408Z,100745.59
2018-06-10T10:47:41.437Z,100746.82
2018-06-10T10:52:44.492Z,100744.16
2018-06-10T10:57:47.555Z,100734.24
2018-06-10T11:02:50.586Z,100739.01
2018-06-10T11:07:53.601Z,100740.70
2018-06-10T11:12:56.678Z,100733.84
2018-06-10T11:17:59.820Z,100725.48
2018-06-10T11:23:02.927Z,100731.44
2018-06-10T11:28:06.010Z,100731.38
2018-06-10T11:33:09.138Z,100725.13
2018-06-10T11:38:12.227Z,100719.84
2018-06-10T11:43:15.270Z,100728.71
2018-06-10T11:48:18.326Z,100728.92
2018-06-10T11:53:21.365Z,100722.67
2018-06-10T11:58:24.385Z,100727.39
2018-06-10T12:03:27.730Z,100729.22
2018-06-10T12:08:32.452Z,100722.88
2018-06-10T12:13:36.259Z,100716.45
2018-06-10T12:18:39.350Z,100719.44
2018-06-10T12:23:42.365Z,100714.89
2018-06-10T12:28:45.605Z,100715.19
2018-06-10T12:33:48.693Z,100718.02
2018-06-10T12:38:52.027Z,100720.52
2018-06-10T12:43:56.826Z,100712.98
2018-06-10T12:49:00.012Z,100712.28
2018-06-10T12:54:03.132Z,100709.41
2018-06-10T12:59:06.170Z,100702.04
2018-06-10T13:04:09.194Z,100701.96
2018-06-10T13:09:12.324Z,100702.58
2018-06-10T13:14:15.373Z,100706.89
2018-06-10T13:19:18.393Z,100713.05
2018-06-10T13:24:21.445Z,100709.44
2018-06-10T13:29:24.461Z,100704.73
2018-06-10T13:34:27.505Z,100708.58
2018-06-10T13:39:30.554Z,100697.78
2018-06-10T13:44:33.612Z,100699.16
2018-06-10T13:49:36.694Z,100698.39
2018-06-10T13:54:39.768Z,100693.14
2018-06-10T13:59:42.771Z,100700.35
2018-06-10T14:04:45.817Z,100701.20
2018-06-10T14:09:48.864Z,100695.48
2018-06-10T14:14:51.917Z,100701.51
2018-06-10T14:19:54.951Z,100707.10
2018-06-10T14:24:58.034Z,100707.33
2018-06-10T14:30:01.165Z,100697.85
2018-06-10T14:35:04.349Z,100610.98
2018-06-10T14:40:07.433Z,100704.91
2018-06-10T14:45:10.517Z,100704.92
2018-06-10T14:50:13.529Z,100697.51
2018-06-10T14:55:16.609Z,100699.73
2018-06-10T15:00:20.522Z,100707.61
2018-06-10T15:05:23.741Z,100703.86
2018-06-10T15:10:26.816Z,100699.20
2018-06-10T15:15:29.951Z,100691.78
2018-06-10T15:20:33.114Z,100698.36
2018-06-10T15:25:36.395Z,100694.27
2018-06-10T15:30:39.521Z,100689.26
2018-06-10T15:35:42.567Z,100687.23
2018-06-10T15:40:45.593Z,100687.59
2018-06-10T15:45:48.602Z,100686.09
2018-06-10T15:50:51.649Z,100680.19
2018-06-10T15:55:54.681Z,100680.27
2018-06-10T16:00:57.702Z,100672.66
2018-06-10T16:06:00.738Z,100670.98
2018-06-10T16:11:03.882Z,100682.09
2018-06-10T16:16:06.901Z,100679.84
2018-06-10T16:21:09.913Z,100672.56
2018-06-10T16:26:12.983Z,100673.74
2018-06-10T16:31:16.029Z,100675.11
2018-06-10T16:36:19.102Z,100674.59
2018-06-10T16:41:22.470Z,100669.04
2018-06-10T16:46:25.538Z,100671.66
2018-06-10T16:51:28.522Z,100677.29
2018-06-10T16:56:31.537Z,100687.38
2018-06-10T17:01:34.547Z,100687.85
2018-06-10T17:06:37.582Z,100693.27
2018-06-10T17:11:40.565Z,100687.66
2018-06-10T17:16:43.586Z,100678.47
2018-06-10T17:21:46.635Z,100675.88
2018-06-10T17:26:49.658Z,100675.46
2018-06-10T17:31:52.721Z,100666.39
2018-06-10T17:36:55.815Z,100659.83
2018-06-10T17:41:58.828Z,100661.75
2018-06-10T17:47:02.949Z,100665.72
2018-06-10T17:52:06.074Z,100665.51
2018-06-10T17:57:09.111Z,100676.05
2018-06-10T18:02:12.162Z,100686.28
2018-06-10T18:07:15.169Z,100684.94
2018-06-10T18:12:18.192Z,100692.67
2018-06-10T18:17:21.702Z,100694.70
2018-06-10T18:22:24.797Z,100697.63
2018-06-10T18:27:27.897Z,100711.33
2018-06-10T18:32:31.013Z,100707.70
2018-06-10T18:37:34.091Z,100711.66
2018-06-10T18:42:37.124Z,100714.66
2018-06-10T18:47:40.229Z,100737.47
2018-06-10T18:52:43.297Z,100737.00
2018-06-10T18:57:46.361Z,100737.88
2018-06-10T19:02:49.381Z,100745.59
2018-06-10T19:07:52.405Z,100752.47
2018-06-10T19:12:55.626Z,100750.67
2018-06-10T19:17:59.111Z,100757.12
2018-06-10T19:23:02.158Z,100743.61
2018-06-10T19:28:05.804Z,100753.86
2018-06-10T19:33:08.840Z,100756.38
2018-06-10T19:38:11.864Z,100759.83
2018-06-10T19:43:14.875Z,100785.38
2018-06-10T19:48:17.921Z,100781.41
2018-06-10T19:53:20.946Z,100792.19
2018-06-10T19:58:24.016Z,100807.83
2018-06-10T20:03:27.122Z,100819.07
2018-06-10T20:08:30.141Z,100818.78
2018-06-10T20:13:33.173Z,100829.44
2018-06-10T20:18:36.202Z,100831.47
2018-06-10T20:23:39.223Z,100833.33
2018-06-10T20:28:42.256Z,100840.29
2018-06-10T20:33:45.340Z,100847.31
2018-06-10T20:38:48.411Z,100852.64
2018-06-10T20:43:51.457Z,100857.61
2018-06-10T20:48:54.503Z,100867.08
2018-06-10T20:53:57.607Z,100861.39
2018-06-10T20:59:00.641Z,100865.20
2018-06-10T21:04:03.712Z,100872.24
2018-06-10T21:09:07.848Z,100883.98
2018-06-10T21:14:10.914Z,100887.48
2018-06-10T21:19:13.962Z,100892.53
2018-06-10T21:24:17.046Z,100882.66
2018-06-10T21:29:20.081Z,100891.97
2018-06-10T21:34:23.126Z,100887.89
2018-06-10T21:39:26.150Z,100891.92
2018-06-10T21:44:29.170Z,100904.41
2018-06-10T21:49:32.265Z,100907.52
2018-06-10T21:54:35.329Z,100892.61
2018-06-10T21:59:38.375Z,100890.59
2018-06-10T22:04:41.452Z,100903.87
2018-06-10T22:09:44.856Z,100904.33
2018-06-10T22:14:47.875Z,100905.95
2018-06-10T22:19:50.917Z,100909.31
2018-06-10T22:24:53.953Z,100917.45
2018-06-10T22:29:56.985Z,100910.05
2018-06-10T22:35:00.031Z,100916.59
2018-06-10T22:40:03.131Z,100920.39
2018-06-10T22:45:06.199Z,100917.88
2018-06-10T22:50:09.201Z,100912.94
2018-06-10T22:55:12.217Z,100913.66
2018-06-10T23:00:15.281Z,100915.24
2018-06-10T23:05:18.320Z,100909.46
2018-06-10T23:10:21.318Z,100900.78
2018-06-10T23:15:24.401Z,100897.87
2018-06-10T23:20:27.439Z,100899.84
2018-06-10T23:25:30.490Z,100910.94
2018-06-10T23:30:33.521Z,100904.63
2018-06-10T23:35:36.594Z,100908.96
2018-06-10T23:40:39.671Z,100917.06
2018-06-10T23:45:42.739Z,100914.91
2018-06-10T23:50:45.789Z,100897.55
2018-06-10T23:55:48.903Z,100899.95
